sensor_id;sensor_type;location;lat;lon;timestamp;pressure;altitude;pressure_sealevel;temperature;humidity
7754;BME280;3921;42.266;23.122;2022-12-18T00:01:28;96204.22;;;11.33;91.57
7754;BME280;3921;42.266;23.122;2022-12-18T00:03:57;96065.66;;;10.47;91.63
7754;BME280;3921;42.266;23.122;2022-12-18T00:06:25;96259.63;;;11.63;91.97
7754;BME280;3921;42.266;23.122;2022-12-18T00:08:54;95808.00;;;8.74;91.69
7754;BME280;3921;42.266;23.122;2022-12-18T00:11:25;96048.72;;;10.11;91.63
7754;BME280;3921;42.266;23.122;2022-12-18T00:13:54;95969.06;;;9.75;91.73
7754;BME280;3921;42.266;23.122;2022-12-18T00:16:28;96084.06;;;10.49;91.72
7754;BME280;3921;42.266;23.122;2022-12-18T00:19:02;96041.91;;;9.92;91.75
7754;BME280;3921;42.266;23.122;2022-12-18T00:21:31;96269.66;;;11.45;91.47
7754;BME280;3921;42.266;23.122;2022-12-18T00:23:59;96288.16;;;11.55;91.21
7754;BME280;3921;42.266;23.122;2022-12-18T00:26:27;95951.31;;;9.41;90.46
7754;BME280;3921;42.266;23.122;2022-12-18T00:29:00;96230.09;;;11.06;89.89
7754;BME280;3921;42.266;23.122;2022-12-18T00:31:28;95957.19;;;9.51;89.85
7754;BME280;3921;42.266;23.122;2022-12-18T00:33:55;95725.66;;;8.01;89.56
7754;BME280;3921;42.266;23.122;2022-12-18T00:36:27;95914.41;;;9.19;88.80
7754;BME280;3921;42.266;23.122;2022-12-18T00:38:55;95831.34;;;8.70;88.02
7754;BME280;3921;42.266;23.122;2022-12-18T00:41:23;96225.84;;;10.85;88.27
7754;BME280;3921;42.266;23.122;2022-12-18T00:44:11;96279.50;;;10.92;87.87
7754;BME280;3921;42.266;23.122;2022-12-18T00:46:42;95864.56;;;8.44;87.37
7754;BME280;3921;42.266;23.122;2022-12-18T00:49:09;95860.53;;;8.60;87.13
7754;BME280;3921;42.266;23.122;2022-12-18T00:51:38;96158.56;;;10.43;87.59
7754;BME280;3921;42.266;23.122;2022-12-18T00:54:05;96298.09;;;11.27;86.68
7754;BME280;3921;42.266;23.122;2022-12-18T00:56:32;96041.69;;;9.52;86.97
7754;BME280;3921;42.266;23.122;2022-12-18T00:58:59;96034.97;;;9.48;86.65
7754;BME280;3921;42.266;23.122;2022-12-18T01:01:26;96044.06;;;9.40;86.50
7754;BME280;3921;42.266;23.122;2022-12-18T01:03:56;96050.84;;;9.48;86.88
7754;BME280;3921;42.266;23.122;2022-12-18T01:06:23;95731.19;;;7.66;86.80
7754;BME280;3921;42.266;23.122;2022-12-18T01:08:57;95837.63;;;8.22;86.83
7754;BME280;3921;42.266;23.122;2022-12-18T01:11:24;95851.91;;;8.32;86.83
7754;BME280;3921;42.266;23.122;2022-12-18T01:13:52;96197.06;;;10.37;86.63
7754;BME280;3921;42.266;23.122;2022-12-18T01:16:20;95860.34;;;8.42;86.10
7754;BME280;3921;42.266;23.122;2022-12-18T01:18:54;96249.22;;;10.75;85.92
7754;BME280;3921;42.266;23.122;2022-12-18T01:21:24;96244.22;;;10.73;85.56
7754;BME280;3921;42.266;23.122;2022-12-18T01:23:52;96079.28;;;9.49;84.98
7754;BME280;3921;42.266;23.122;2022-12-18T01:26:21;95901.28;;;8.44;84.01
7754;BME280;3921;42.266;23.122;2022-12-18T01:28:53;96130.59;;;9.88;83.61
7754;BME280;3921;42.266;23.122;2022-12-18T01:31:22;96339.97;;;11.17;84.52
7754;BME280;3921;42.266;23.122;2022-12-18T01:33:51;96075.00;;;9.40;84.70
7754;BME280;3921;42.266;23.122;2022-12-18T01:36:22;96375.28;;;11.33;84.24
7754;BME280;3921;42.266;23.122;2022-12-18T01:38:50;96062.50;;;9.42;84.31
7754;BME280;3921;42.266;23.122;2022-12-18T01:41:27;96374.41;;;11.29;84.13
7754;BME280;3921;42.266;23.122;2022-12-18T01:47:21;95885.91;;;8.10;83.54
7754;BME280;3921;42.266;23.122;2022-12-18T01:49:50;96264.19;;;10.55;82.98
7754;BME280;3921;42.266;23.122;2022-12-18T01:52:17;96333.09;;;10.89;83.22
7754;BME280;3921;42.266;23.122;2022-12-18T01:54:46;96296.97;;;10.70;83.57
7754;BME280;3921;42.266;23.122;2022-12-18T01:57:15;96260.78;;;10.45;82.45
7754;BME280;3921;42.266;23.122;2022-12-18T01:59:45;96158.13;;;9.77;82.85
7754;BME280;3921;42.266;23.122;2022-12-18T02:02:14;95828.72;;;7.65;82.30
7754;BME280;3921;42.266;23.122;2022-12-18T02:04:45;95964.84;;;8.57;82.56
7754;BME280;3921;42.266;23.122;2022-12-18T02:07:17;96229.56;;;10.19;83.19
7754;BME280;3921;42.266;23.122;2022-12-18T02:09:55;96106.63;;;9.21;82.72
7754;BME280;3921;42.266;23.122;2022-12-18T02:12:32;96237.88;;;10.13;83.48
7754;BME280;3921;42.266;23.122;2022-12-18T02:15:07;95910.91;;;8.07;82.74
7754;BME280;3921;42.266;23.122;2022-12-18T02:17:42;96280.84;;;10.42;83.13
7754;BME280;3921;42.266;23.122;2022-12-18T02:20:18;96425.50;;;11.16;82.98
7754;BME280;3921;42.266;23.122;2022-12-18T02:22:59;95885.78;;;7.98;82.21
7754;BME280;3921;42.266;23.122;2022-12-18T02:25:42;96274.84;;;10.26;81.93
7754;BME280;3921;42.266;23.122;2022-12-18T02:28:22;96080.59;;;9.07;81.50
7754;BME280;3921;42.266;23.122;2022-12-18T02:30:53;96309.31;;;10.38;81.49
7754;BME280;3921;42.266;23.122;2022-12-18T02:33:27;96139.41;;;9.41;80.35
7754;BME280;3921;42.266;23.122;2022-12-18T02:35:55;96019.81;;;8.44;80.47
7754;BME280;3921;42.266;23.122;2022-12-18T02:38:23;96006.41;;;8.39;80.09
7754;BME280;3921;42.266;23.122;2022-12-18T02:40:53;96375.50;;;10.45;80.36
7754;BME280;3921;42.266;23.122;2022-12-18T02:43:21;96112.25;;;8.99;79.91
7754;BME280;3921;42.266;23.122;2022-12-18T02:45:52;96371.28;;;10.42;80.33
7754;BME280;3921;42.266;23.122;2022-12-18T02:48:24;95888.56;;;7.50;80.70
7754;BME280;3921;42.266;23.122;2022-12-18T02:50:59;96287.00;;;9.83;80.19
7754;BME280;3921;42.266;23.122;2022-12-18T02:53:41;96016.13;;;8.15;80.08
7754;BME280;3921;42.266;23.122;2022-12-18T02:56:13;96250.81;;;9.62;79.95
7754;BME280;3921;42.266;23.122;2022-12-18T02:58:51;96354.38;;;10.26;79.48
7754;BME280;3921;42.266;23.122;2022-12-18T03:01:27;95895.22;;;7.51;79.53
7754;BME280;3921;42.266;23.122;2022-12-18T03:04:01;96143.09;;;8.92;80.06
7754;BME280;3921;42.266;23.122;2022-12-18T03:06:33;95964.72;;;7.73;80.13
7754;BME280;3921;42.266;23.122;2022-12-18T03:09:06;96057.91;;;8.20;79.84
7754;BME280;3921;42.266;23.122;2022-12-18T03:11:39;96099.31;;;8.61;79.68
7754;BME280;3921;42.266;23.122;2022-12-18T03:14:27;95902.56;;;7.38;79.15
7754;BME280;3921;42.266;23.122;2022-12-18T03:16:59;95894.69;;;7.08;79.67
7754;BME280;3921;42.266;23.122;2022-12-18T03:19:29;96157.91;;;8.72;80.28
7754;BME280;3921;42.266;23.122;2022-12-18T03:22:00;95875.44;;;7.02;79.43
7754;BME280;3921;42.266;23.122;2022-12-18T03:24:34;96034.88;;;7.81;79.54
7754;BME280;3921;42.266;23.122;2022-12-18T03:27:06;95955.38;;;7.58;79.01
7754;BME280;3921;42.266;23.122;2022-12-18T03:29:40;95956.88;;;7.45;80.37
7754;BME280;3921;42.266;23.122;2022-12-18T03:32:11;95961.06;;;7.48;79.58
7754;BME280;3921;42.266;23.122;2022-12-18T03:34:42;96088.78;;;8.21;79.43
7754;BME280;3921;42.266;23.122;2022-12-18T03:37:16;96021.25;;;7.62;79.53
7754;BME280;3921;42.266;23.122;2022-12-18T03:39:43;96326.97;;;9.64;79.88
7754;BME280;3921;42.266;23.122;2022-12-18T03:42:16;96442.41;;;10.36;78.63
7754;BME280;3921;42.266;23.122;2022-12-18T03:44:53;96105.44;;;8.19;79.31
7754;BME280;3921;42.266;23.122;2022-12-18T03:47:28;96185.88;;;8.42;78.84
7754;BME280;3921;42.266;23.122;2022-12-18T03:50:03;96175.09;;;8.44;80.43
7754;BME280;3921;42.266;23.122;2022-12-18T03:52:41;96336.69;;;9.39;79.95
7754;BME280;3921;42.266;23.122;2022-12-18T03:55:10;96482.38;;;10.20;79.84
7754;BME280;3921;42.266;23.122;2022-12-18T03:57:41;95996.28;;;7.06;79.81
7754;BME280;3921;42.266;23.122;2022-12-18T04:00:13;96249.75;;;8.71;79.72
7754;BME280;3921;42.266;23.122;2022-12-18T04:02:47;95932.63;;;6.84;78.62
7754;BME280;3921;42.266;23.122;2022-12-18T04:05:19;96399.75;;;9.65;79.08
7754;BME280;3921;42.266;23.122;2022-12-18T04:07:48;96011.22;;;7.04;79.46
7754;BME280;3921;42.266;23.122;2022-12-18T04:10:18;96472.81;;;9.87;80.29
7754;BME280;3921;42.266;23.122;2022-12-18T04:12:47;96298.25;;;8.76;78.35
7754;BME280;3921;42.266;23.122;2022-12-18T04:15:15;96288.03;;;8.61;79.34
7754;BME280;3921;42.266;23.122;2022-12-18T04:17:47;96224.81;;;8.21;78.89
7754;BME280;3921;42.266;23.122;2022-12-18T04:20:17;96385.63;;;9.11;78.28
7754;BME280;3921;42.266;23.122;2022-12-18T04:22:44;96386.28;;;8.96;79.50
7754;BME280;3921;42.266;23.122;2022-12-18T04:25:13;96297.13;;;8.55;79.18
7754;BME280;3921;42.266;23.122;2022-12-18T04:27:43;96237.50;;;8.32;77.96
7754;BME280;3921;42.266;23.122;2022-12-18T04:30:12;96089.97;;;7.31;78.63
7754;BME280;3921;42.266;23.122;2022-12-18T04:32:41;96469.00;;;9.52;78.08
7754;BME280;3921;42.266;23.122;2022-12-18T04:35:11;96352.44;;;8.67;77.79
7754;BME280;3921;42.266;23.122;2022-12-18T04:37:38;96404.69;;;8.98;78.51
7754;BME280;3921;42.266;23.122;2022-12-18T04:40:11;96321.19;;;8.45;77.73
7754;BME280;3921;42.266;23.122;2022-12-18T04:42:41;96104.41;;;6.99;77.85
7754;BME280;3921;42.266;23.122;2022-12-18T04:45:13;96035.63;;;6.71;77.77
7754;BME280;3921;42.266;23.122;2022-12-18T04:47:44;96338.00;;;8.52;77.78
7754;BME280;3921;42.266;23.122;2022-12-18T04:50:13;96312.56;;;8.31;78.26
7754;BME280;3921;42.266;23.122;2022-12-18T04:52:40;96131.41;;;7.18;77.08
7754;BME280;3921;42.266;23.122;2022-12-18T04:55:11;96358.78;;;8.48;77.51
7754;BME280;3921;42.266;23.122;2022-12-18T04:57:41;96014.00;;;6.26;77.30
7754;BME280;3921;42.266;23.122;2022-12-18T05:00:13;96620.25;;;10.00;77.32
7754;BME280;3921;42.266;23.122;2022-12-18T05:02:59;96566.22;;;9.66;77.06
7754;BME280;3921;42.266;23.122;2022-12-18T05:05:30;96628.56;;;9.96;77.39
7754;BME280;3921;42.266;23.122;2022-12-18T05:08:03;96638.59;;;9.94;77.13
7754;BME280;3921;42.266;23.122;2022-12-18T05:10:33;96406.97;;;8.35;78.07
7754;BME280;3921;42.266;23.122;2022-12-18T05:13:09;96224.09;;;7.29;77.70
7754;BME280;3921;42.266;23.122;2022-12-18T05:15:40;96579.88;;;9.31;78.02
7754;BME280;3921;42.266;23.122;2022-12-18T05:18:08;96153.13;;;6.77;78.27
7754;BME280;3921;42.266;23.122;2022-12-18T05:20:41;96489.72;;;8.86;78.76
7754;BME280;3921;42.266;23.122;2022-12-18T05:23:11;96440.97;;;8.67;nan
7754;BME280;3921;42.266;23.122;2022-12-18T05:25:38;96386.72;;;8.24;78.10
7754;BME280;3921;42.266;23.122;2022-12-18T05:28:13;96451.84;;;8.69;77.40
7754;BME280;3921;42.266;23.122;2022-12-18T05:30:42;96384.97;;;8.18;77.56
7754;BME280;3921;42.266;23.122;2022-12-18T05:33:13;96294.03;;;7.69;77.01
7754;BME280;3921;42.266;23.122;2022-12-18T05:35:56;96531.66;;;8.96;77.01
7754;BME280;3921;42.266;23.122;2022-12-18T05:38:41;96528.34;;;8.97;77.82
7754;BME280;3921;42.266;23.122;2022-12-18T05:41:24;96112.44;;;6.40;77.84
7754;BME280;3921;42.266;23.122;2022-12-18T05:43:56;96225.25;;;7.04;77.47
7754;BME280;3921;42.266;23.122;2022-12-18T05:46:41;96583.22;;;9.30;77.57
7754;BME280;3921;42.266;23.122;2022-12-18T05:49:25;96504.66;;;8.80;78.21
7754;BME280;3921;42.266;23.122;2022-12-18T05:51:56;96669.19;;;9.70;75.81
7754;BME280;3921;42.266;23.122;2022-12-18T05:54:23;96072.50;;;5.99;77.13
7754;BME280;3921;42.266;23.122;2022-12-18T05:56:51;96475.50;;;8.38;77.83
7754;BME280;3921;42.266;23.122;2022-12-18T05:59:18;96553.41;;;8.99;76.85
7754;BME280;3921;42.266;23.122;2022-12-18T06:01:45;96670.88;;;9.71;77.34
7754;BME280;3921;42.266;23.122;2022-12-18T06:04:13;96165.31;;;6.61;77.30
7754;BME280;3921;42.266;23.122;2022-12-18T06:06:45;96360.09;;;7.81;76.46
7754;BME280;3921;42.266;23.122;2022-12-18T06:09:14;96252.75;;;7.04;76.57
7754;BME280;3921;42.266;23.122;2022-12-18T06:11:41;96263.47;;;6.98;76.06
7754;BME280;3921;42.266;23.122;2022-12-18T06:14:09;96689.84;;;9.57;76.04
7754;BME280;3921;42.266;23.122;2022-12-18T06:16:36;96511.44;;;8.40;75.81
7754;BME280;3921;42.266;23.122;2022-12-18T06:19:05;96587.03;;;9.09;75.95
7754;BME280;3921;42.266;23.122;2022-12-18T06:21:32;96694.38;;;9.76;75.45
7754;BME280;3921;42.266;23.122;2022-12-18T06:24:01;96426.81;;;7.80;75.38
7754;BME280;3921;42.266;23.122;2022-12-18T06:26:28;96671.50;;;9.60;75.68
7754;BME280;3921;42.266;23.122;2022-12-18T06:28:55;96742.94;;;9.80;75.19
7754;BME280;3921;42.266;23.122;2022-12-18T06:31:22;96649.28;;;9.32;75.04
7754;BME280;3921;42.266;23.122;2022-12-18T06:33:49;96614.91;;;9.25;74.89
7754;BME280;3921;42.266;23.122;2022-12-18T06:36:16;96514.25;;;8.57;75.63
7754;BME280;3921;42.266;23.122;2022-12-18T06:38:44;96601.03;;;8.99;74.52
7754;BME280;3921;42.266;23.122;2022-12-18T06:41:14;96335.69;;;7.27;74.60
7754;BME280;3921;42.266;23.122;2022-12-18T06:43:41;96546.00;;;8.58;75.18
7754;BME280;3921;42.266;23.122;2022-12-18T06:46:09;96725.34;;;9.77;75.18
7754;BME280;3921;42.266;23.122;2022-12-18T06:48:36;96694.06;;;9.58;74.66
7754;BME280;3921;42.266;23.122;2022-12-18T06:51:04;96673.56;;;9.34;74.05
7754;BME280;3921;42.266;23.122;2022-12-18T06:53:32;96727.78;;;9.72;74.44
7754;BME280;3921;42.266;23.122;2022-12-18T06:56:05;96197.19;;;6.35;74.09
7754;BME280;3921;42.266;23.122;2022-12-18T06:58:34;96618.75;;;9.07;74.36
7754;BME280;3921;42.266;23.122;2022-12-18T07:01:02;96481.25;;;7.92;74.84
7754;BME280;3921;42.266;23.122;2022-12-18T07:03:29;96745.88;;;9.56;74.34
7754;BME280;3921;42.266;23.122;2022-12-18T07:05:57;96235.72;;;6.47;73.73
7754;BME280;3921;42.266;23.122;2022-12-18T07:08:24;96757.78;;;9.66;73.85
7754;BME280;3921;42.266;23.122;2022-12-18T07:10:51;96680.88;;;8.79;73.79
7754;BME280;3921;42.266;23.122;2022-12-18T07:13:19;96651.47;;;8.70;74.15
7754;BME280;3921;42.266;23.122;2022-12-18T07:15:48;96669.81;;;8.68;74.71
7754;BME280;3921;42.266;23.122;2022-12-18T07:18:15;96673.50;;;8.85;74.06
7754;BME280;3921;42.266;23.122;2022-12-18T07:20:41;96667.16;;;8.62;74.32
7754;BME280;3921;42.266;23.122;2022-12-18T07:23:09;96463.03;;;7.58;74.52
7754;BME280;3921;42.266;23.122;2022-12-18T07:25:37;96781.81;;;9.55;73.81
7754;BME280;3921;42.266;23.122;2022-12-18T07:28:04;96653.69;;;8.57;74.25
7754;BME280;3921;42.266;23.122;2022-12-18T07:30:31;96481.66;;;7.71;73.76
7754;BME280;3921;42.266;23.122;2022-12-18T07:33:01;96707.19;;;8.99;74.21
7754;BME280;3921;42.266;23.122;2022-12-18T07:35:28;96797.06;;;9.64;74.21
7754;BME280;3921;42.266;23.122;2022-12-18T07:37:55;96439.06;;;7.29;74.18
7754;BME280;3921;42.266;23.122;2022-12-18T07:40:22;96719.09;;;9.11;73.89
7754;BME280;3921;42.266;23.122;2022-12-18T07:42:49;96293.69;;;6.33;73.42
7754;BME280;3921;42.266;23.122;2022-12-18T07:45:16;96380.56;;;6.83;73.60
7754;BME280;3921;42.266;23.122;2022-12-18T07:47:43;96409.91;;;6.93;73.65
7754;BME280;3921;42.266;23.122;2022-12-18T07:50:12;96743.53;;;8.79;74.23
7754;BME280;3921;42.266;23.122;2022-12-18T07:52:39;96698.31;;;8.74;73.70
7754;BME280;3921;42.266;23.122;2022-12-18T07:55:07;96513.94;;;7.60;73.39
7754;BME280;3921;42.266;23.122;2022-12-18T07:57:34;96735.34;;;8.88;73.43
7754;BME280;3921;42.266;23.122;2022-12-18T08:00:01;96439.56;;;7.14;73.10
7754;BME280;3921;42.266;23.122;2022-12-18T08:02:30;96812.31;;;9.32;72.73
7754;BME280;3921;42.266;23.122;2022-12-18T08:04:57;96675.06;;;8.41;73.40
7754;BME280;3921;42.266;23.122;2022-12-18T08:07:26;96424.78;;;6.87;73.49
7754;BME280;3921;42.266;23.122;2022-12-18T08:09:53;96851.16;;;9.50;73.93
7754;BME280;3921;42.266;23.122;2022-12-18T08:12:20;96224.63;;;5.65;72.94
7754;BME280;3921;42.266;23.122;2022-12-18T08:14:47;96533.78;;;7.53;73.86
7754;BME280;3921;42.266;23.122;2022-12-18T08:17:14;96785.66;;;8.95;74.60
7754;BME280;3921;42.266;23.122;2022-12-18T08:19:41;96811.88;;;9.11;73.31
7754;BME280;3921;42.266;23.122;2022-12-18T08:22:08;96814.63;;;9.22;74.47
7754;BME280;3921;42.266;23.122;2022-12-18T08:24:36;96885.69;;;9.63;73.70
7754;BME280;3921;42.266;23.122;2022-12-18T08:27:03;96272.63;;;5.89;73.99
7754;BME280;3921;42.266;23.122;2022-12-18T08:29:31;96661.13;;;8.14;73.02
7754;BME280;3921;42.266;23.122;2022-12-18T08:31:59;96826.94;;;9.11;73.77
7754;BME280;3921;42.266;23.122;2022-12-18T08:34:32;96595.00;;;7.68;74.07
7754;BME280;3921;42.266;23.122;2022-12-18T08:37:13;96774.44;;;8.78;73.75
7754;BME280;3921;42.266;23.122;2022-12-18T08:45:53;96365.72;;;6.20;72.26
7754;BME280;3921;42.266;23.122;2022-12-18T08:48:25;96381.72;;;6.28;72.91
7754;BME280;3921;42.266;23.122;2022-12-18T08:51:18;96389.94;;;6.24;72.68
7754;BME280;3921;42.266;23.122;2022-12-18T08:53:56;96343.69;;;6.03;71.98
7754;BME280;3921;42.266;23.122;2022-12-18T08:56:30;96655.81;;;8.02;72.28
7754;BME280;3921;42.266;23.122;2022-12-18T08:59:26;96871.00;;;9.39;73.06
7754;BME280;3921;42.266;23.122;2022-12-18T09:02:20;96529.81;;;7.26;72.50
7754;BME280;3921;42.266;23.122;2022-12-18T09:04:47;96266.09;;;5.61;71.40
7754;BME280;3921;42.266;23.122;2022-12-18T09:07:15;96636.22;;;7.84;72.25
7754;BME280;3921;42.266;23.122;2022-12-18T09:09:42;96606.16;;;7.83;72.30
7754;BME280;3921;42.266;23.122;2022-12-18T09:12:09;96755.47;;;8.51;72.70
7754;BME280;3921;42.266;23.122;2022-12-18T09:14:37;96656.56;;;7.98;72.59
7754;BME280;3921;42.266;23.122;2022-12-18T09:17:04;96501.22;;;7.15;71.41
7754;BME280;3921;42.266;23.122;2022-12-18T09:19:34;96767.03;;;8.84;71.23
7754;BME280;3921;42.266;23.122;2022-12-18T09:22:01;96349.41;;;6.32;70.75
7754;BME280;3921;42.266;23.122;2022-12-18T09:24:30;96355.81;;;6.23;70.57
7754;BME280;3921;42.266;23.122;2022-12-18T09:27:04;96290.22;;;5.94;70.41
7754;BME280;3921;42.266;23.122;2022-12-18T09:29:33;96556.59;;;7.66;70.03
7754;BME280;3921;42.266;23.122;2022-12-18T09:32:07;96752.81;;;8.83;70.71
7754;BME280;3921;42.266;23.122;2022-12-18T09:34:38;96342.09;;;6.40;71.19
7754;BME280;3921;42.266;23.122;2022-12-18T09:37:06;96337.69;;;6.30;70.88
7754;BME280;3921;42.266;23.122;2022-12-18T09:39:35;96328.50;;;6.29;71.47
7754;BME280;3921;42.266;23.122;2022-12-18T09:42:10;96870.47;;;9.54;72.56
7754;BME280;3921;42.266;23.122;2022-12-18T09:44:49;96359.09;;;6.55;71.62
7754;BME280;3921;42.266;23.122;2022-12-18T09:54:11;96330.72;;;6.51;72.22
7754;BME280;3921;42.266;23.122;2022-12-18T10:08:06;96782.84;;;9.21;72.14
7754;BME280;3921;42.266;23.122;2022-12-18T10:14:33;96334.75;;;6.46;71.72
7754;BME280;3921;42.266;23.122;2022-12-18T10:17:17;96246.25;;;5.97;71.61
7754;BME280;3921;42.266;23.122;2022-12-18T10:20:13;96329.31;;;6.62;71.93
7754;BME280;3921;42.266;23.122;2022-12-18T10:22:51;96366.75;;;6.62;72.51
7754;BME280;3921;42.266;23.122;2022-12-18T10:25:28;96283.81;;;6.38;72.72
7754;BME280;3921;42.266;23.122;2022-12-18T10:28:10;96412.53;;;6.98;72.71
7754;BME280;3921;42.266;23.122;2022-12-18T10:30:42;96361.38;;;6.82;72.60
7754;BME280;3921;42.266;23.122;2022-12-18T10:33:38;96295.31;;;6.69;72.10
7754;BME280;3921;42.266;23.122;2022-12-18T10:36:08;96554.13;;;8.06;71.90
7754;BME280;3921;42.266;23.122;2022-12-18T10:38:36;96311.09;;;6.67;71.25
7754;BME280;3921;42.266;23.122;2022-12-18T10:41:05;96242.13;;;6.35;71.74
7754;BME280;3921;42.266;23.122;2022-12-18T10:43:36;96497.06;;;7.91;72.54
7754;BME280;3921;42.266;23.122;2022-12-18T10:46:16;96618.84;;;8.67;71.07
7754;BME280;3921;42.266;23.122;2022-12-18T10:48:54;96326.25;;;6.76;71.97
7754;BME280;3921;42.266;23.122;2022-12-18T10:51:27;96266.19;;;6.32;72.27
7754;BME280;3921;42.266;23.122;2022-12-18T10:53:57;96342.06;;;6.75;72.33
7754;BME280;3921;42.266;23.122;2022-12-18T10:56:28;96333.59;;;6.68;71.62
7754;BME280;3921;42.266;23.122;2022-12-18T10:59:00;96349.63;;;6.78;72.11
7754;BME280;3921;42.266;23.122;2022-12-18T11:01:45;96787.56;;;9.48;71.77
7754;BME280;3921;42.266;23.122;2022-12-18T11:04:18;96322.69;;;6.64;71.80
7754;BME280;3921;42.266;23.122;2022-12-18T11:07:03;96513.25;;;8.08;71.62
7754;BME280;3921;42.266;23.122;2022-12-18T11:09:34;96849.38;;;9.88;71.73
7754;BME280;3921;42.266;23.122;2022-12-18T11:12:18;96830.97;;;9.88;71.96
7754;BME280;3921;42.266;23.122;2022-12-18T11:14:47;96382.69;;;7.04;70.64
7754;BME280;3921;42.266;23.122;2022-12-18T11:17:21;96530.38;;;7.87;70.90
7754;BME280;3921;42.266;23.122;2022-12-18T11:19:53;96359.78;;;6.84;71.90
7754;BME280;3921;42.266;23.122;2022-12-18T11:22:29;96295.88;;;6.56;72.01
7754;BME280;3921;42.266;23.122;2022-12-18T11:25:19;96614.38;;;8.54;72.10
7754;BME280;3921;42.266;23.122;2022-12-18T11:27:55;96331.78;;;6.62;71.85
7754;BME280;3921;42.266;23.122;2022-12-18T11:30:30;96505.50;;;7.57;72.59
7754;BME280;3921;42.266;23.122;2022-12-18T11:33:13;96382.75;;;7.07;72.68
7754;BME280;3921;42.266;23.122;2022-12-18T11:35:45;96281.44;;;6.44;72.79
7754;BME280;3921;42.266;23.122;2022-12-18T11:38:21;96766.09;;;9.20;71.99
7754;BME280;3921;42.266;23.122;2022-12-18T11:40:59;96621.00;;;8.50;70.61
7754;BME280;3921;42.266;23.122;2022-12-18T11:43:33;96262.88;;;6.33;70.61
7754;BME280;3921;42.266;23.122;2022-12-18T11:46:06;96660.53;;;8.65;70.91
7754;BME280;3921;42.266;23.122;2022-12-18T11:49:01;96350.78;;;6.92;70.23
7754;BME280;3921;42.266;23.122;2022-12-18T11:51:48;96296.97;;;6.69;70.22
7754;BME280;3921;42.266;23.122;2022-12-18T11:54:19;96739.56;;;9.31;70.82
7754;BME280;3921;42.266;23.122;2022-12-18T11:56:58;96318.53;;;6.65;69.99
7754;BME280;3921;42.266;23.122;2022-12-18T12:08:57;96490.13;;;7.78;70.33
7754;BME280;3921;42.266;23.122;2022-12-18T12:11:45;96389.34;;;7.05;69.10
7754;BME280;3921;42.266;23.122;2022-12-18T12:14:30;96768.81;;;9.29;69.64
7754;BME280;3921;42.266;23.122;2022-12-18T12:17:09;96519.59;;;7.91;70.13
7754;BME280;3921;42.266;23.122;2022-12-18T12:19:45;96614.34;;;8.51;69.80
7754;BME280;3921;42.266;23.122;2022-12-18T12:22:24;96679.13;;;8.75;70.84
7754;BME280;3921;42.266;23.122;2022-12-18T12:25:21;96316.69;;;6.22;69.98
7754;BME280;3921;42.266;23.122;2022-12-18T12:28:01;96307.88;;;6.01;71.38
7754;BME280;3921;42.266;23.122;2022-12-18T12:30:38;96284.72;;;6.07;70.30
7754;BME280;3921;42.266;23.122;2022-12-18T12:33:21;96280.06;;;6.21;70.30
7754;BME280;3921;42.266;23.122;2022-12-18T12:35:57;96741.31;;;8.93;71.50
7754;BME280;3921;42.266;23.122;2022-12-18T12:38:31;96491.56;;;7.29;70.53
7754;BME280;3921;42.266;23.122;2022-12-18T12:41:04;96757.41;;;9.02;70.64
7754;BME280;3921;42.266;23.122;2022-12-18T12:43:55;96322.50;;;6.21;70.88
7754;BME280;3921;42.266;23.122;2022-12-18T12:46:24;96362.28;;;6.49;70.56
7754;BME280;3921;42.266;23.122;2022-12-18T12:48:55;96605.25;;;7.79;69.51
7754;BME280;3921;42.266;23.122;2022-12-18T12:51:26;96624.19;;;8.04;69.36
7754;BME280;3921;42.266;23.122;2022-12-18T12:53:56;96565.53;;;7.57;68.83
7754;BME280;3921;42.266;23.122;2022-12-18T12:56:41;96825.53;;;9.24;68.92
7754;BME280;3921;42.266;23.122;2022-12-18T12:59:20;96368.38;;;6.26;69.38
7754;BME280;3921;42.266;23.122;2022-12-18T13:01:54;96594.69;;;7.55;68.65
7754;BME280;3921;42.266;23.122;2022-12-18T13:04:33;96291.88;;;5.93;68.29
7754;BME280;3921;42.266;23.122;2022-12-18T13:07:09;96482.34;;;6.91;68.06
7754;BME280;3921;42.266;23.122;2022-12-18T13:10:22;96428.03;;;6.48;69.13
7754;BME280;3921;42.266;23.122;2022-12-18T13:13:01;96500.16;;;7.05;69.01
7754;BME280;3921;42.266;23.122;2022-12-18T13:15:34;96719.84;;;8.29;68.63
7754;BME280;3921;42.266;23.122;2022-12-18T13:18:16;96388.50;;;6.32;67.37
7754;BME280;3921;42.266;23.122;2022-12-18T13:20:45;96502.88;;;6.80;68.50
7754;BME280;3921;42.266;23.122;2022-12-18T13:23:26;96715.63;;;8.26;67.94
7754;BME280;3921;42.266;23.122;2022-12-18T13:25:55;96409.53;;;6.42;68.01
7754;BME280;3921;42.266;23.122;2022-12-18T13:28:50;96730.00;;;8.35;68.06
7754;BME280;3921;42.266;23.122;2022-12-18T13:34:22;96418.47;;;6.33;65.88
7754;BME280;3921;42.266;23.122;2022-12-18T13:36:57;96426.75;;;6.31;66.29
7754;BME280;3921;42.266;23.122;2022-12-18T13:39:48;96819.69;;;8.86;67.55
7754;BME280;3921;42.266;23.122;2022-12-18T13:42:37;96934.66;;;9.44;66.40
7754;BME280;3921;42.266;23.122;2022-12-18T13:49:01;96824.59;;;8.81;65.88
7754;BME280;3921;42.266;23.122;2022-12-18T13:51:34;96933.06;;;9.48;67.00
7754;BME280;3921;42.266;23.122;2022-12-18T13:54:33;96481.28;;;6.49;65.41
7754;BME280;3921;42.266;23.122;2022-12-18T13:57:45;96945.75;;;9.54;65.06
7754;BME280;3921;42.266;23.122;2022-12-18T14:00:44;96964.13;;;9.53;63.52
7754;BME280;3921;42.266;23.122;2022-12-18T14:10:42;96941.50;;;9.51;63.04
7754;BME280;3921;42.266;23.122;2022-12-18T14:13:23;96437.41;;;6.25;63.08
7754;BME280;3921;42.266;23.122;2022-12-18T14:16:01;96421.41;;;6.19;62.52
